Time;durP1;ratioP1;P1;durP2;ratioP2;P2;SDS_P1;SDS_P2;PMS_P1;PMS_P2;Temp;Humidity;BMP_temperature;BMP_pressure;BME280_temperature;BME280_humidity;BME280_pressure;Samples;Min_cycle;Max_cycle;Signal;HPM_P1;HPM_P2
2022/04/28 00:00:55;;;;;;;;;;;;;;;20.21;40.16;102732.03;5054906;28;20369;-84
2022/04/28 00:03:20;;;;;;;;;;;;;;;20.20;40.09;102737.78;5054002;28;19990;-89
2022/04/28 00:05:46;;;;;;;;;;;;;;;20.19;40.30;102731.47;5070802;28;20261;-84
2022/04/28 00:08:11;;;;;;;;;;;;;;;20.20;40.33;102737.78;5053913;28;20097;-84
2022/04/28 00:10:37;;;;;;;;;;;;;;;20.18;40.43;102726.22;5055128;28;19960;-84
2022/04/28 00:13:03;;;;;;;;;;;;;;;20.19;40.26;102739.69;5053675;28;19925;-83
2022/04/28 00:15:29;;;;;;;;;;;;;;;20.18;40.39;102734.47;5056011;28;19916;-85
2022/04/28 00:17:55;;;;;;;;;;;;;;;20.18;40.15;102734.47;5056573;28;20011;-84
2022/04/28 00:20:20;;;;;;;;;;;;;;;20.16;40.25;102729.25;5056866;28;20046;-91
2022/04/28 00:22:45;;;;;;;;;;;;;;;20.16;40.21;102739.38;5054564;28;19916;-84
2022/04/28 00:25:11;;;;;;;;;;;;;;;20.16;39.98;102737.50;5054102;28;19924;-84
2022/04/28 00:27:37;;;;;;;;;;;;;;;20.16;40.49;102739.38;5036861;28;20369;-83
2022/04/28 00:30:03;;;;;;;;;;;;;;;20.14;40.08;102728.69;5053532;28;19917;-87
2022/04/28 00:32:29;;;;;;;;;;;;;;;20.14;40.11;102731.41;5054352;28;19962;-84
2022/04/28 00:34:54;;;;;;;;;;;;;;;20.14;39.94;102730.59;5055057;28;20023;-83
2022/04/28 00:37:20;;;;;;;;;;;;;;;20.13;40.15;102727.00;5053306;28;19921;-83
2022/04/28 00:39:45;;;;;;;;;;;;;;;20.13;40.05;102731.66;5036598;28;19921;-83
2022/04/28 00:42:11;;;;;;;;;;;;;;;20.13;40.28;102728.94;5037371;28;19921;-83
2022/04/28 00:44:37;;;;;;;;;;;;;;;20.13;40.31;102723.44;5052964;28;19916;-84
2022/04/28 00:47:02;;;;;;;;;;;;;;;20.10;40.20;102731.09;5053149;28;19928;-85
2022/04/28 00:52:11;;;;;;;;;;;;;;;20.10;40.07;102728.34;5054591;28;20035;-84
2022/04/28 00:54:37;;;;;;;;;;;;;;;20.09;39.94;102720.41;5052772;28;19917;-84
2022/04/28 00:57:03;;;;;;;;;;;;;;;20.09;40.06;102726.72;5053838;28;19921;-84
2022/04/28 00:59:29;;;;;;;;;;;;;;;20.09;40.29;102737.69;5053199;28;20308;-87
2022/04/28 01:01:54;;;;;;;;;;;;;;;20.08;40.17;102735.19;5053121;28;20388;-83
2022/04/28 01:04:19;;;;;;;;;;;;;;;20.08;40.04;102727.81;5036451;28;19921;-83
2022/04/28 01:06:45;;;;;;;;;;;;;;;20.07;40.29;102730.78;5036949;28;19917;-83
2022/04/28 01:09:10;;;;;;;;;;;;;;;20.08;40.15;102732.44;5036092;28;20369;-84
2022/04/28 01:11:36;;;;;;;;;;;;;;;20.08;39.96;102732.44;5052760;28;19925;-84
2022/04/28 01:14:01;;;;;;;;;;;;;;;20.07;40.14;102728.06;5053807;28;20254;-84
2022/04/28 01:16:27;;;;;;;;;;;;;;;20.06;40.21;102731.91;5036194;28;20259;-88
2022/04/28 01:18:52;;;;;;;;;;;;;;;20.05;40.02;102728.31;5036523;28;19987;-83
2022/04/28 01:21:17;;;;;;;;;;;;;;;20.07;40.17;102728.06;5035996;28;20277;-84
2022/04/28 01:23:43;;;;;;;;;;;;;;;20.04;40.09;102726.66;5035882;28;20319;-83
2022/04/28 01:26:08;;;;;;;;;;;;;;;20.05;40.03;102730.22;5036426;28;19920;-84
2022/04/28 01:28:33;;;;;;;;;;;;;;;20.05;40.19;102730.22;5052868;28;19921;-83
2022/04/28 01:31:00;;;;;;;;;;;;;;;20.04;40.02;102725.84;5052342;28;19917;-84
2022/04/28 01:33:25;;;;;;;;;;;;;;;20.03;40.04;102724.16;5052324;28;19975;-84
2022/04/28 01:35:50;;;;;;;;;;;;;;;20.03;39.94;102724.16;5053329;28;19960;-86
2022/04/28 01:38:16;;;;;;;;;;;;;;;20.03;39.93;102725.00;5052635;28;19924;-85
2022/04/28 01:40:41;;;;;;;;;;;;;;;20.02;40.06;102728.81;5052190;28;19917;-84
2022/04/28 01:43:06;;;;;;;;;;;;;;;20.02;40.13;102726.06;5035681;28;19975;-84
2022/04/28 01:45:34;;;;;;;;;;;;;;;20.02;40.12;102730.75;5035707;28;19929;-83
2022/04/28 01:47:59;;;;;;;;;;;;;;;20.01;40.15;102731.84;5052658;28;20358;-83
2022/04/28 01:50:24;;;;;;;;;;;;;;;20.01;39.91;102740.91;5053550;28;19923;-83
2022/04/28 01:55:34;;;;;;;;;;;;;;;19.99;40.13;102732.09;5053509;28;19931;-84
2022/04/28 01:57:59;;;;;;;;;;;;;;;20.00;40.13;102730.16;5035615;28;19921;-84
2022/04/28 02:00:24;;;;;;;;;;;;;;;19.99;40.07;102729.34;5052444;28;20016;-83
2022/04/28 02:02:49;;;;;;;;;;;;;;;19.99;40.13;102736.75;5052729;28;19962;-84
2022/04/28 02:05:16;;;;;;;;;;;;;;;19.98;40.08;102735.94;5052273;28;19917;-84
2022/04/28 02:07:41;;;;;;;;;;;;;;;19.99;40.13;102731.25;5052317;28;19921;-84
2022/04/28 02:10:07;;;;;;;;;;;;;;;19.98;39.97;102737.81;5052721;28;20262;-84
2022/04/28 02:12:32;;;;;;;;;;;;;;;19.98;39.92;102735.06;5052624;28;20253;-90
2022/04/28 02:14:57;;;;;;;;;;;;;;;19.96;39.94;102738.09;5056147;28;19916;-84
2022/04/28 02:17:24;;;;;;;;;;;;;;;19.96;39.85;102740.84;5039497;28;20311;-83
2022/04/28 02:19:50;;;;;;;;;;;;;;;19.96;39.91;102737.25;5055637;28;19923;-86
2022/04/28 02:22:15;;;;;;;;;;;;;;;19.96;39.95;102737.25;5055725;28;19917;-83
2022/04/28 02:24:40;;;;;;;;;;;;;;;19.95;40.01;102738.34;5055924;28;20361;-83
2022/04/28 02:27:06;;;;;;;;;;;;;;;19.94;40.06;102739.44;5055638;28;19921;-83
2022/04/28 02:29:31;;;;;;;;;;;;;;;19.95;39.94;102738.34;5056617;28;19996;-84
2022/04/28 02:31:57;;;;;;;;;;;;;;;19.95;39.95;102735.59;5072768;28;19917;-83
2022/04/28 02:34:22;;;;;;;;;;;;;;;19.94;39.97;102736.69;5038432;28;20388;-83
2022/04/28 02:36:47;;;;;;;;;;;;;;;19.94;39.93;102728.47;5038435;28;19921;-84
2022/04/28 02:39:14;;;;;;;;;;;;;;;19.93;39.88;102729.53;5039456;28;19920;-84
2022/04/28 02:41:40;;;;;;;;;;;;;;;19.92;40.08;102728.72;5055380;28;19916;-84
2022/04/28 02:44:06;;;;;;;;;;;;;;;19.92;39.93;102739.69;5055662;28;19924;-84
2022/04/28 02:46:32;;;;;;;;;;;;;;;19.92;40.02;102734.19;5039087;28;19927;-83
2022/04/28 02:48:57;;;;;;;;;;;;;;;19.92;39.99;102738.88;5056801;28;19921;-83
2022/04/28 02:51:22;;;;;;;;;;;;;;;19.91;39.86;102732.56;5055072;28;19927;-84
2022/04/28 02:53:48;;;;;;;;;;;;;;;19.90;39.98;102733.63;5038343;28;19921;-84
2022/04/28 02:56:13;;;;;;;;;;;;;;;19.90;39.93;102739.09;5056424;28;19959;-83
2022/04/28 02:58:38;;;;;;;;;;;;;;;19.88;39.80;102736.63;5054915;28;19923;-85
2022/04/28 03:01:04;;;;;;;;;;;;;;;19.88;39.82;102735.78;5055005;28;20011;-83
2022/04/28 03:03:30;;;;;;;;;;;;;;;19.88;39.93;102735.78;5055025;28;20404;-83
2022/04/28 03:11:23;;;;;;;;;;;;;;;19.86;39.93;102735.25;5056241;28;20288;-83
2022/04/28 03:13:49;;;;;;;;;;;;;;;19.85;39.85;102731.66;5038316;28;19921;-83
2022/04/28 03:16:14;;;;;;;;;;;;;;;19.85;40.02;102728.09;5038200;28;20012;-83
2022/04/28 03:18:39;;;;;;;;;;;;;;;19.85;40.07;102731.66;5056071;28;19921;-84
2022/04/28 03:21:08;;;;;;;;;;;;;;;19.84;39.93;102723.69;5038060;28;20338;-83
2022/04/28 03:23:33;;;;;;;;;;;;;;;19.84;39.86;102727.25;5054637;28;19928;-84
2022/04/28 03:25:58;;;;;;;;;;;;;;;19.83;39.95;102724.75;5053977;28;19920;-84
2022/04/28 03:28:24;;;;;;;;;;;;;;;19.83;39.91;102735.72;5038253;28;20015;-84
2022/04/28 03:30:50;;;;;;;;;;;;;;;19.83;39.81;102728.34;5055064;28;20349;-83
2022/04/28 03:33:16;;;;;;;;;;;;;;;19.82;40.09;102734.91;5055309;28;19923;-83
2022/04/28 03:35:41;;;;;;;;;;;;;;;19.82;39.81;102726.69;5054009;28;19970;-83
2022/04/28 03:38:12;;;;;;;;;;;;;;;19.82;40.00;102734.91;5054278;28;19917;-84
2022/04/28 03:40:41;;;;;;;;;;;;;;;19.80;39.90;102737.06;5054222;28;20350;-87
2022/04/28 03:43:07;;;;;;;;;;;;;;;19.81;39.97;102740.66;5054170;28;19917;-84
2022/04/28 03:45:33;;;;;;;;;;;;;;;19.81;39.70;102741.50;5054162;28;19928;-83
2022/04/28 03:47:58;;;;;;;;;;;;;;;19.80;39.96;102737.06;5037096;28;19923;-83
2022/04/28 03:50:23;;;;;;;;;;;;;;;19.79;39.95;102735.44;5054070;28;20019;-84
2022/04/28 03:52:49;;;;;;;;;;;;;;;19.80;39.76;102739.00;5053483;28;19928;-83
2022/04/28 03:55:14;;;;;;;;;;;;;;;19.79;39.83;102737.34;5054280;28;19920;-86
2022/04/28 03:57:40;;;;;;;;;;;;;;;19.78;39.87;102739.28;5054046;28;19921;-91
2022/04/28 04:00:06;;;;;;;;;;;;;;;19.77;39.79;102734.84;5037202;28;19943;-84
2022/04/28 04:02:31;;;;;;;;;;;;;;;19.78;40.06;102741.16;5053642;28;20003;-84
2022/04/28 04:04:58;;;;;;;;;;;;;;;19.77;39.65;102736.78;5053586;28;20384;-84
2022/04/28 04:07:28;;;;;;;;;;;;;;;19.76;40.01;102738.69;5054849;28;19995;-84
2022/04/28 04:09:53;;;;;;;;;;;;;;;19.75;39.72;102737.00;5053591;28;19917;-84
2022/04/28 04:12:18;;;;;;;;;;;;;;;19.76;39.85;102740.59;5036904;28;20000;-83
2022/04/28 04:14:44;;;;;;;;;;;;;;;19.75;39.81;102738.94;5037024;28;19979;-84
2022/04/28 04:17:09;;;;;;;;;;;;;;;19.75;39.86;102745.25;5036890;28;20372;-83
2022/04/28 04:19:34;;;;;;;;;;;;;;;19.75;39.63;102745.25;5053290;28;19920;-84
2022/04/28 04:21:59;;;;;;;;;;;;;;;19.74;39.69;102743.59;5053612;28;19917;-83
2022/04/28 04:24:26;;;;;;;;;;;;;;;19.74;39.74;102737.28;5036709;28;19920;-83
2022/04/28 04:26:51;;;;;;;;;;;;;;;19.74;39.66;102740.03;5053339;28;19932;-83
2022/04/28 04:29:16;;;;;;;;;;;;;;;19.73;39.67;102743.84;5053238;28;19916;-83
2022/04/28 04:34:25;;;;;;;;;;;;;;;19.72;39.93;102744.94;5053474;28;19963;-83
2022/04/28 04:36:50;;;;;;;;;;;;;;;19.72;39.68;102744.94;5035541;28;20324;-84
2022/04/28 04:39:16;;;;;;;;;;;;;;;19.71;39.87;102749.59;5054636;28;19956;-83
2022/04/28 04:41:41;;;;;;;;;;;;;;;19.71;39.74;102752.34;5036414;28;19951;-86
2022/04/28 04:44:13;;;;;;;;;;;;;;;19.71;39.73;102751.50;5052995;28;19917;-84
2022/04/28 04:46:38;;;;;;;;;;;;;;;19.70;39.75;102747.09;5038139;28;19921;-83
2022/04/28 04:49:03;;;;;;;;;;;;;;;19.70;39.78;102752.59;5036903;28;19944;-83
2022/04/28 04:51:28;;;;;;;;;;;;;;;19.71;39.73;102754.25;5036346;28;19921;-83
2022/04/28 04:53:54;;;;;;;;;;;;;;;19.70;39.75;102764.38;5052817;28;20023;-83
2022/04/28 04:56:19;;;;;;;;;;;;;;;19.70;39.95;102766.28;5036530;28;19921;-83
2022/04/28 04:58:44;;;;;;;;;;;;;;;19.69;39.72;102761.91;5036044;28;19971;-85
2022/04/28 05:01:09;;;;;;;;;;;;;;;19.69;39.89;102773.69;5036160;28;19921;-84
2022/04/28 05:03:35;;;;;;;;;;;;;;;19.69;39.89;102768.22;5036145;28;19928;-84
2022/04/28 05:06:00;;;;;;;;;;;;;;;19.69;39.64;102781.09;5052800;28;19921;-84
2022/04/28 05:08:25;;;;;;;;;;;;;;;19.69;39.67;102781.09;5036103;28;19928;-84
2022/04/28 05:10:51;;;;;;;;;;;;;;;19.68;39.81;102785.75;5035726;28;19925;-83
2022/04/28 05:13:16;;;;;;;;;;;;;;;19.68;39.82;102785.75;5036335;28;19921;-83
2022/04/28 05:15:43;;;;;;;;;;;;;;;19.69;39.82;102786.56;5052544;28;19925;-86
2022/04/28 05:18:09;;;;;;;;;;;;;;;19.68;39.74;102793.97;5036181;28;19927;-83
2022/04/28 05:20:34;;;;;;;;;;;;;;;19.67;39.89;102797.78;5036013;28;19921;-83
2022/04/28 05:22:59;;;;;;;;;;;;;;;19.68;39.84;102791.25;5035999;28;19924;-83
2022/04/28 05:25:25;;;;;;;;;;;;;;;19.68;39.78;102793.97;5054133;28;19917;-85
2022/04/28 05:27:50;;;;;;;;;;;;;;;19.66;39.93;102799.69;5041417;28;19921;-84
2022/04/28 05:30:15;;;;;;;;;;;;;;;19.67;39.71;102803.28;5046404;28;19920;-83
2022/04/28 05:32:41;;;;;;;;;;;;;;;19.66;39.77;102801.59;5037445;28;19925;-85
2022/04/28 05:35:06;;;;;;;;;;;;;;;19.67;39.77;102803.28;5053384;28;19928;-84
2022/04/28 05:37:31;;;;;;;;;;;;;;;19.67;39.63;102806.84;5036328;28;19921;-83
2022/04/28 05:39:57;;;;;;;;;;;;;;;19.66;39.66;102810.63;5053144;28;20353;-84
2022/04/28 05:45:41;;;;;;;;;;;;;;;19.66;39.57;102812.56;5035883;28;19925;-83
2022/04/28 05:47:51;;;;;;;;;;;;;;;19.66;39.88;102820.78;5053766;28;19928;-83
2022/04/28 05:50:16;;;;;;;;;;;;;;;19.65;39.84;102813.63;5056666;28;19920;-83
2022/04/28 05:52:41;;;;;;;;;;;;;;;19.67;39.53;102830.69;5040313;28;19947;-84
2022/04/28 05:55:07;;;;;;;;;;;;;;;19.65;39.65;102830.94;5039190;28;19921;-83
2022/04/28 05:57:32;;;;;;;;;;;;;;;19.66;39.75;102837.22;5040380;28;19950;-83
2022/04/28 05:59:58;;;;;;;;;;;;;;;19.65;39.73;102841.91;5039449;28;20399;-83
2022/04/28 06:02:23;;;;;;;;;;;;;;;19.66;39.69;102851.75;5056354;28;19982;-79
2022/04/28 06:04:48;;;;;;;;;;;;;;;19.66;39.84;102850.94;5039055;28;19928;-86
2022/04/28 06:07:13;;;;;;;;;;;;;;;19.66;39.62;102850.94;5039395;28;19928;-86
2022/04/28 06:09:39;;;;;;;;;;;;;;;19.66;39.63;102850.94;5055959;28;19928;-80
2022/04/28 06:12:04;;;;;;;;;;;;;;;19.66;39.64;102853.69;5039504;28;20374;-86
2022/04/28 06:14:29;;;;;;;;;;;;;;;19.66;39.57;102856.44;5039198;28;19924;-84
2022/04/28 06:16:55;;;;;;;;;;;;;;;19.66;39.62;102861.91;5039383;28;20015;-84
2022/04/28 06:19:21;;;;;;;;;;;;;;;19.66;39.75;102853.69;5039392;28;20341;-83
2022/04/28 06:21:46;;;;;;;;;;;;;;;19.65;39.54;102852.88;5038873;28;19921;-84
2022/04/28 06:24:12;;;;;;;;;;;;;;;19.66;39.76;102856.44;5056446;28;19932;-84
2022/04/28 06:26:37;;;;;;;;;;;;;;;19.66;39.73;102856.44;5055996;28;20284;-83
2022/04/28 06:29:02;;;;;;;;;;;;;;;19.66;39.58;102856.44;5039427;28;19980;-84
2022/04/28 06:31:27;;;;;;;;;;;;;;;19.66;39.53;102861.91;5055481;28;19920;-85
2022/04/28 06:33:53;;;;;;;;;;;;;;;19.65;39.70;102858.34;5038285;28;19925;-85
2022/04/28 06:36:18;;;;;;;;;;;;;;;19.66;39.77;102864.66;5055552;28;20348;-85
2022/04/28 06:38:44;;;;;;;;;;;;;;;19.66;39.76;102857.25;5039667;28;20242;-86
2022/04/28 06:41:09;;;;;;;;;;;;;;;19.66;39.64;102861.91;5056587;28;19924;-85
2022/04/28 06:43:37;;;;;;;;;;;;;;;19.67;39.79;102869.91;5038673;28;19920;-84
2022/04/28 06:46:15;;;;;;;;;;;;;;;19.66;39.80;102870.97;5038981;28;19928;-84
2022/04/28 06:48:41;;;;;;;;;;;;;;;19.67;39.53;102866.34;5055740;28;19927;-84
2022/04/28 06:51:06;;;;;;;;;;;;;;;19.66;39.56;102870.97;5055056;28;20254;-85
2022/04/28 06:53:31;;;;;;;;;;;;;;;19.66;39.65;102875.63;5038467;28;19928;-84
2022/04/28 06:55:57;;;;;;;;;;;;;;;19.67;39.65;102880.03;5054919;28;20385;-85
2022/04/28 06:58:22;;;;;;;;;;;;;;;19.67;39.73;102880.03;5055300;28;19925;-84
2022/04/28 07:00:49;;;;;;;;;;;;;;;19.67;39.69;102886.34;5053837;28;19921;-84
2022/04/28 07:03:14;;;;;;;;;;;;;;;19.66;39.56;102886.59;5055097;28;20369;-84
2022/04/28 07:05:39;;;;;;;;;;;;;;;19.66;39.63;102890.16;5056089;28;19916;-84
2022/04/28 07:08:05;;;;;;;;;;;;;;;19.68;39.61;102895.44;5038177;28;20319;-84
2022/04/28 07:10:30;;;;;;;;;;;;;;;19.67;39.67;102896.50;5055104;28;19920;-84
2022/04/28 07:12:56;;;;;;;;;;;;;;;19.67;39.55;102896.50;5038623;28;19928;-84
2022/04/28 07:15:21;;;;;;;;;;;;;;;19.66;39.69;102898.38;5038041;28;19928;-85
2022/04/28 07:17:46;;;;;;;;;;;;;;;19.67;39.61;102897.31;5055234;28;19944;-84
2022/04/28 07:20:12;;;;;;;;;;;;;;;19.67;39.75;102902.78;5038451;28;19920;-83
2022/04/28 07:22:37;;;;;;;;;;;;;;;19.67;39.69;102908.28;5054601;28;19927;-85
2022/04/28 07:25:02;;;;;;;;;;;;;;;19.69;39.75;102909.97;5055745;28;19924;-82
2022/04/28 07:27:28;;;;;;;;;;;;;;;19.68;39.62;102920.09;5037413;28;19920;-83
2022/04/28 07:29:53;;;;;;;;;;;;;;;19.67;39.79;102918.41;5055070;28;19928;-86
2022/04/28 07:32:18;;;;;;;;;;;;;;;19.69;39.62;102920.94;5037669;28;19958;-84
2022/04/28 07:34:43;;;;;;;;;;;;;;;19.69;39.65;102926.41;5037429;28;19932;-83
2022/04/28 07:37:09;;;;;;;;;;;;;;;19.69;39.82;102929.97;5054430;28;20432;-82
2022/04/28 07:39:34;;;;;;;;;;;;;;;19.70;39.84;102931.63;5054458;28;20261;-89
2022/04/28 07:41:59;;;;;;;;;;;;;;;19.73;39.83;102938.53;5055153;28;19921;-89
2022/04/28 07:44:24;;;;;;;;;;;;;;;19.74;39.95;102930.06;5038201;28;20024;-87
2022/04/28 07:46:50;;;;;;;;;;;;;;;19.75;40.04;102925.41;5054359;28;20400;-85
2022/04/28 07:49:15;;;;;;;;;;;;;;;19.77;40.11;102931.47;5055058;28;19917;-84
2022/04/28 07:51:41;;;;;;;;;;;;;;;19.79;40.33;102934.78;5054775;28;20011;-83
2022/04/28 07:54:06;;;;;;;;;;;;;;;19.81;40.05;102938.13;5037765;28;20282;-80
2022/04/28 07:56:31;;;;;;;;;;;;;;;19.83;40.20;102944.16;5036721;28;19964;-91
2022/04/28 07:58:56;;;;;;;;;;;;;;;19.84;40.32;102941.16;5054134;28;19916;-85
2022/04/28 08:01:22;;;;;;;;;;;;;;;19.87;40.21;102942.56;5053911;28;20387;-82
2022/04/28 08:03:48;;;;;;;;;;;;;;;19.88;40.33;102947.81;5053471;28;19969;-89
2022/04/28 08:06:14;;;;;;;;;;;;;;;19.91;40.55;102948.38;5054976;28;19924;-82
2022/04/28 08:08:42;;;;;;;;;;;;;;;19.93;40.44;102948.97;5037612;28;19925;-83
2022/04/28 08:11:08;;;;;;;;;;;;;;;19.95;40.42;102949.53;5054735;28;20388;-86
2022/04/28 08:13:34;;;;;;;;;;;;;;;19.98;40.69;102954.53;5053754;28;19924;-86
2022/04/28 08:16:01;;;;;;;;;;;;;;;19.99;40.81;102948.78;5036996;28;19921;-89
2022/04/28 08:18:26;;;;;;;;;;;;;;;20.01;40.64;102951.31;5053829;28;19920;-83
2022/04/28 08:20:51;;;;;;;;;;;;;;;20.03;40.64;102954.59;5036939;28;20326;-88
2022/04/28 08:23:17;;;;;;;;;;;;;;;20.03;40.63;102958.19;5053885;28;20371;-84
2022/04/28 08:25:42;;;;;;;;;;;;;;;20.04;40.78;102957.09;5052759;28;20465;-84
2022/04/28 08:28:07;;;;;;;;;;;;;;;20.05;40.71;102952.44;5069528;28;19970;-84
2022/04/28 08:30:32;;;;;;;;;;;;;;;20.05;40.82;102950.50;5036102;28;20372;-83
2022/04/28 08:32:59;;;;;;;;;;;;;;;20.06;40.79;102954.94;5054004;28;20008;-84
2022/04/28 08:35:24;;;;;;;;;;;;;;;20.07;40.83;102950.28;5053069;28;20349;-85
2022/04/28 08:37:50;;;;;;;;;;;;;;;20.07;40.74;102950.28;5052981;28;19932;-84
2022/04/28 08:40:16;;;;;;;;;;;;;;;20.08;40.64;102954.66;5052746;28;19917;-84
2022/04/28 08:42:42;;;;;;;;;;;;;;;20.08;40.80;102954.66;5052772;28;19967;-83
2022/04/28 08:45:08;;;;;;;;;;;;;;;20.09;40.75;102957.16;5035777;28;20334;-83
2022/04/28 08:47:33;;;;;;;;;;;;;;;20.09;40.87;102948.94;5036286;28;19925;-82
2022/04/28 08:49:58;;;;;;;;;;;;;;;20.10;40.76;102955.25;5036357;28;19970;-86
2022/04/28 08:52:24;;;;;;;;;;;;;;;20.10;40.61;102955.25;5052583;28;20046;-86
2022/04/28 08:54:52;;;;;;;;;;;;;;;20.10;40.53;102953.31;5036096;28;19921;-85
2022/04/28 08:57:17;;;;;;;;;;;;;;;20.10;40.58;102956.06;5054022;28;20050;-83
2022/04/28 08:59:44;;;;;;;;;;;;;;;20.11;40.57;102959.66;5054371;28;19964;-89
2022/04/28 09:02:12;;;;;;;;;;;;;;;20.10;40.41;102956.06;5036284;28;19921;-88
2022/04/28 09:04:38;;;;;;;;;;;;;;;20.12;40.65;102957.75;5053765;28;19939;-85
2022/04/28 09:07:06;;;;;;;;;;;;;;;20.13;40.53;102954.72;5052572;28;20347;-89
2022/04/28 09:09:32;;;;;;;;;;;;;;;20.13;40.52;102960.22;5052465;28;19966;-86
2022/04/28 09:12:02;;;;;;;;;;;;;;;20.13;40.58;102962.97;5069185;28;19916;-84
2022/04/28 09:14:27;;;;;;;;;;;;;;;20.13;40.35;102952.00;5052462;28;19913;-85
2022/04/28 09:17:03;;;;;;;;;;;;;;;20.14;40.24;102950.94;5052268;28;19996;-83
2022/04/28 09:19:30;;;;;;;;;;;;;;;20.15;40.23;102940.78;5052165;28;20019;-85
2022/04/28 09:21:56;;;;;;;;;;;;;;;20.15;40.37;102943.53;5052080;28;19921;-83
2022/04/28 09:24:22;;;;;;;;;;;;;;;20.15;40.23;102943.53;5055630;28;19917;-81
2022/04/28 09:26:48;;;;;;;;;;;;;;;20.15;40.27;102941.59;5056065;28;19985;-81
2022/04/28 09:29:16;;;;;;;;;;;;;;;20.16;40.19;102940.53;5055866;28;19921;-83
2022/04/28 09:31:43;;;;;;;;;;;;;;;20.16;40.38;102940.53;5056539;28;20281;-83
2022/04/28 09:34:09;;;;;;;;;;;;;;;20.17;40.37;102938.63;5055842;28;19932;-84
2022/04/28 09:36:35;;;;;;;;;;;;;;;20.18;40.18;102934.78;5056393;28;19986;-84
2022/04/28 09:39:01;;;;;;;;;;;;;;;20.17;40.37;102933.94;5056098;28;19917;-85
2022/04/28 09:44:12;;;;;;;;;;;;;;;20.19;40.22;102942.75;5057624;28;19924;-85
2022/04/28 09:46:44;;;;;;;;;;;;;;;20.19;40.02;102933.72;5056491;28;19925;-85
2022/04/28 09:49:10;;;;;;;;;;;;;;;20.20;40.27;102943.59;5039222;28;19921;-84
2022/04/28 09:51:38;;;;;;;;;;;;;;;20.20;40.22;102932.59;5055490;28;20391;-92
2022/04/28 09:54:06;;;;;;;;;;;;;;;20.19;40.04;102937.28;5055405;28;19963;-87
2022/04/28 09:56:34;;;;;;;;;;;;;;;20.21;40.31;102932.38;5055860;28;19966;-83
2022/04/28 09:58:59;;;;;;;;;;;;;;;20.21;40.07;102929.63;5055576;28;19920;-84
2022/04/28 10:01:25;;;;;;;;;;;;;;;20.21;40.13;102928.78;5056069;28;19924;-84
2022/04/28 10:03:50;;;;;;;;;;;;;;;20.21;39.91;102929.63;5055489;28;19921;-84
2022/04/28 10:06:16;;;;;;;;;;;;;;;20.21;39.98;102932.38;5055707;28;20015;-83
2022/04/28 10:08:42;;;;;;;;;;;;;;;20.22;40.02;102928.53;5055127;28;20300;-84
2022/04/28 10:11:09;;;;;;;;;;;;;;;20.22;39.96;102923.03;5055120;28;19917;-80
2022/04/28 10:13:34;;;;;;;;;;;;;;;20.23;40.06;102921.13;5056100;28;19974;-82
2022/04/28 10:16:01;;;;;;;;;;;;;;;20.22;39.87;102920.28;5038251;28;20003;-83
2022/04/28 10:18:33;;;;;;;;;;;;;;;20.22;39.89;102925.78;5054848;28;19917;-80
2022/04/28 10:21:00;;;;;;;;;;;;;;;20.23;40.04;102923.84;5055067;28;19917;-82
2022/04/28 10:34:30;;;;;;;;;;;;;;;20.24;39.77;102911.81;5062073;28;19931;-80
2022/04/28 10:37:06;;;;;;;;;;;;;;;20.24;39.89;102920.88;5070752;28;19905;-83
2022/04/28 10:39:33;;;;;;;;;;;;;;;20.24;39.87;102914.56;5065657;28;19987;-85
2022/04/28 10:41:59;;;;;;;;;;;;;;;20.25;39.80;102911.53;5058919;28;19917;-83
2022/04/28 10:44:29;;;;;;;;;;;;;;;20.27;39.69;102914.03;5040348;28;19943;-83
2022/04/28 10:46:55;;;;;;;;;;;;;;;20.26;39.75;102913.22;5055088;28;19927;-83
2022/04/28 10:49:24;;;;;;;;;;;;;;;20.27;39.98;102917.63;5054645;28;20312;-83
2022/04/28 10:51:55;;;;;;;;;;;;;;;20.27;39.65;102905.81;5054725;28;19960;-81
2022/04/28 10:54:23;;;;;;;;;;;;;;;20.29;39.68;102909.13;5054463;28;19916;-84
2022/04/28 10:56:54;;;;;;;;;;;;;;;20.29;39.88;102907.22;5038233;28;19959;-82
2022/04/28 10:59:23;;;;;;;;;;;;;;;20.30;39.58;102900.63;5054671;28;20260;-82
2022/04/28 11:01:48;;;;;;;;;;;;;;;20.30;39.90;102900.63;5055431;28;19916;-83
2022/04/28 11:04:20;;;;;;;;;;;;;;;20.31;39.73;102896.81;5054614;28;19924;-83
2022/04/28 11:06:50;;;;;;;;;;;;;;;20.31;39.78;102894.06;5055693;28;19923;-80
2022/04/28 11:09:29;;;;;;;;;;;;;;;20.33;39.91;102902.03;5055530;28;20031;-83
2022/04/28 11:11:56;;;;;;;;;;;;;;;20.34;39.64;102900.13;5070723;28;20430;-82
2022/04/28 11:14:21;;;;;;;;;;;;;;;20.35;39.40;102899.03;5055502;28;20045;-89
2022/04/28 11:16:46;;;;;;;;;;;;;;;20.35;39.89;102888.88;5054942;28;19983;-86
2022/04/28 11:19:12;;;;;;;;;;;;;;;20.36;39.77;102892.44;5038271;28;19927;-88
2022/04/28 11:21:39;;;;;;;;;;;;;;;20.37;39.82;102894.94;5038550;28;19928;-87
2022/04/28 11:24:05;;;;;;;;;;;;;;;20.38;39.68;102885.63;5037814;28;20016;-87
2022/04/28 11:26:30;;;;;;;;;;;;;;;20.39;39.60;102883.72;5054400;28;19959;-83
2022/04/28 11:28:55;;;;;;;;;;;;;;;20.41;39.86;102884.28;5056445;28;19966;-89
2022/04/28 11:31:21;;;;;;;;;;;;;;;20.42;39.68;102888.69;5054774;28;19921;-90
2022/04/28 11:33:50;;;;;;;;;;;;;;;20.42;39.73;102881.28;5039361;28;19967;-87
2022/04/28 11:36:20;;;;;;;;;;;;;;;20.43;40.00;102888.41;5056085;28;20414;-86
2022/04/28 11:38:50;;;;;;;;;;;;;;;20.45;39.97;102890.94;5055270;28;19917;-88
2022/04/28 11:41:15;;;;;;;;;;;;;;;20.45;39.83;102883.50;5054634;28;19917;-93
2022/04/28 11:43:41;;;;;;;;;;;;;;;20.46;39.75;102884.34;5054629;28;20286;-91
2022/04/28 11:46:07;;;;;;;;;;;;;;;20.47;40.03;102892.31;5054854;28;19917;-89
2022/04/28 11:48:35;;;;;;;;;;;;;;;20.48;39.88;102882.16;5054235;28;19924;-89
2022/04/28 11:51:04;;;;;;;;;;;;;;;20.49;39.89;102881.91;5055218;28;19916;-88
2022/04/28 11:53:40;;;;;;;;;;;;;;;20.49;40.02;102881.91;5054223;28;19994;-89
2022/04/28 11:56:13;;;;;;;;;;;;;;;20.51;40.02;102878.91;5054612;28;19948;-89
2022/04/28 11:58:38;;;;;;;;;;;;;;;20.50;40.08;102874.50;5072013;28;20372;-90
2022/04/28 12:01:03;;;;;;;;;;;;;;;20.52;39.93;102875.09;5037612;28;20024;-88
2022/04/28 12:03:31;;;;;;;;;;;;;;;20.53;40.06;102876.72;5072924;28;19917;-89
2022/04/28 12:05:59;;;;;;;;;;;;;;;20.53;40.14;102868.50;5057205;28;19917;-89
2022/04/28 12:08:24;;;;;;;;;;;;;;;20.53;39.96;102865.75;5054453;28;19924;-90
2022/04/28 12:19:19;;;;;;;;;;;;;;;20.53;39.83;102876.72;5055523;28;19923;-86
2022/04/28 12:19:25;;;;;;;;;;;;;;;20.55;40.05;102871.03;5054719;28;19917;-91
2022/04/28 12:21:50;;;;;;;;;;;;;;;20.55;40.18;102871.84;5054002;28;20277;-87
2022/04/28 12:24:16;;;;;;;;;;;;;;;20.55;40.05;102863.63;5054553;28;19917;-84
2022/04/28 12:26:42;;;;;;;;;;;;;;;20.57;40.22;102863.38;5054480;28;19928;-89
2022/04/28 12:29:08;;;;;;;;;;;;;;;20.57;40.05;102866.94;5053102;28;20349;-88
2022/04/28 12:31:34;;;;;;;;;;;;;;;20.57;40.30;102869.69;5036991;28;19947;-88
2022/04/28 12:33:59;;;;;;;;;;;;;;;20.59;40.28;102866.66;5053139;28;20365;-89
2022/04/28 12:36:25;;;;;;;;;;;;;;;20.59;40.31;102859.28;5052999;28;19921;-88
2022/04/28 12:38:53;;;;;;;;;;;;;;;20.59;40.10;102864.75;5052885;28;19923;-88
2022/04/28 12:41:19;;;;;;;;;;;;;;;20.60;40.13;102866.41;5053056;28;19924;-85
2022/04/28 12:43:51;;;;;;;;;;;;;;;20.61;40.19;102862.56;5053475;28;20015;-86
2022/04/28 12:46:22;;;;;;;;;;;;;;;20.61;40.11;102868.06;5053180;28;20373;-89
2022/04/28 12:48:54;;;;;;;;;;;;;;;20.62;40.06;102856.00;5053939;28;20006;-90
2022/04/28 12:51:21;;;;;;;;;;;;;;;20.63;40.35;102865.06;5053212;28;20268;-87
2022/04/28 12:53:47;;;;;;;;;;;;;;;20.63;40.25;102867.81;5054092;28;19960;-84
2022/04/28 12:56:13;;;;;;;;;;;;;;;20.63;40.08;102860.38;5054667;28;19917;-89
2022/04/28 12:58:43;;;;;;;;;;;;;;;20.64;40.14;102864.00;5052694;28;19917;-92
2022/04/28 13:01:13;;;;;;;;;;;;;;;20.64;40.34;102864.81;5037094;28;19921;-91
2022/04/28 13:03:39;;;;;;;;;;;;;;;20.65;40.26;102857.41;5053588;28;19917;-88
2022/04/28 13:06:04;;;;;;;;;;;;;;;20.66;40.11;102865.38;5037117;28;19928;-86